sensor_id;sensor_type;location;lat;lon;timestamp;P1;durP1;ratioP1;P2;durP2;ratioP2
35675;SDS011;21790;42.668;23.298;2023-03-05T01:15:17;42.03;;;18.48;;
35675;SDS011;21790;42.668;23.298;2023-03-05T01:18:00;34.67;;;16.95;;
35675;SDS011;21790;42.668;23.298;2023-03-05T01:23:19;34.47;;;17.90;;
35675;SDS011;21790;42.668;23.298;2023-03-05T01:29:06;42.92;;;18.67;;
35675;SDS011;21790;42.668;23.298;2023-03-05T01:34:56;38.55;;;17.38;;
35675;SDS011;21790;42.668;23.298;2023-03-05T01:47:07;32.85;;;16.38;;
35675;SDS011;21790;42.668;23.298;2023-03-05T01:56:22;41.35;;;18.58;;
35675;SDS011;21790;42.668;23.298;2023-03-05T02:02:15;36.72;;;17.40;;
35675;SDS011;21790;42.668;23.298;2023-03-05T02:11:02;34.20;;;17.30;;
35675;SDS011;21790;42.668;23.298;2023-03-05T02:16:51;34.03;;;16.88;;
35675;SDS011;21790;42.668;23.298;2023-03-05T02:22:46;34.80;;;17.70;;
35675;SDS011;21790;42.668;23.298;2023-03-05T03:02:08;37.85;;;18.85;;
35675;SDS011;21790;42.668;23.298;2023-03-05T03:08:25;38.80;;;19.45;;
35675;SDS011;21790;42.668;23.298;2023-03-05T04:52:21;43.47;;;21.80;;
35675;SDS011;21790;42.668;23.298;2023-03-05T04:58:14;45.30;;;21.55;;
35675;SDS011;21790;42.668;23.298;2023-03-05T05:04:12;48.45;;;22.15;;
35675;SDS011;21790;42.668;23.298;2023-03-05T05:10:16;45.13;;;20.92;;
35675;SDS011;21790;42.668;23.298;2023-03-05T05:23:05;45.10;;;19.90;;
35675;SDS011;21790;42.668;23.298;2023-03-05T05:35:18;42.13;;;19.20;;
35675;SDS011;21790;42.668;23.298;2023-03-05T05:41:09;41.55;;;18.77;;
35675;SDS011;21790;42.668;23.298;2023-03-05T06:15:22;33.38;;;15.35;;
35675;SDS011;21790;42.668;23.298;2023-03-05T06:21:05;38.20;;;16.55;;
35675;SDS011;21790;42.668;23.298;2023-03-05T06:23:36;34.47;;;16.95;;
35675;SDS011;21790;42.668;23.298;2023-03-05T06:31:48;33.78;;;15.48;;
35675;SDS011;21790;42.668;23.298;2023-03-05T06:34:15;31.17;;;15.57;;
35675;SDS011;21790;42.668;23.298;2023-03-05T06:36:40;34.85;;;15.20;;
35675;SDS011;21790;42.668;23.298;2023-03-05T06:39:08;34.70;;;14.50;;
35675;SDS011;21790;42.668;23.298;2023-03-05T06:41:34;32.10;;;15.82;;
35675;SDS011;21790;42.668;23.298;2023-03-05T06:44:00;38.38;;;16.35;;
35675;SDS011;21790;42.668;23.298;2023-03-05T06:46:28;30.65;;;13.85;;
35675;SDS011;21790;42.668;23.298;2023-03-05T06:54:10;31.63;;;15.13;;
35675;SDS011;21790;42.668;23.298;2023-03-05T06:56:38;36.03;;;15.80;;
35675;SDS011;21790;42.668;23.298;2023-03-05T06:59:05;32.35;;;15.02;;
35675;SDS011;21790;42.668;23.298;2023-03-05T07:01:31;35.05;;;16.17;;
35675;SDS011;21790;42.668;23.298;2023-03-05T07:03:58;30.60;;;15.45;;
35675;SDS011;21790;42.668;23.298;2023-03-05T07:06:27;34.60;;;15.48;;
35675;SDS011;21790;42.668;23.298;2023-03-05T07:08:56;32.88;;;15.00;;
35675;SDS011;21790;42.668;23.298;2023-03-05T07:11:32;28.42;;;14.60;;
35675;SDS011;21790;42.668;23.298;2023-03-05T07:13:58;33.55;;;16.38;;
35675;SDS011;21790;42.668;23.298;2023-03-05T07:16:25;30.67;;;15.70;;
35675;SDS011;21790;42.668;23.298;2023-03-05T07:18:53;35.90;;;17.17;;
35675;SDS011;21790;42.668;23.298;2023-03-05T07:21:21;34.28;;;17.27;;
35675;SDS011;21790;42.668;23.298;2023-03-05T07:23:52;40.00;;;17.48;;
35675;SDS011;21790;42.668;23.298;2023-03-05T07:26:22;34.33;;;16.92;;
35675;SDS011;21790;42.668;23.298;2023-03-05T07:28:49;34.85;;;15.73;;
35675;SDS011;21790;42.668;23.298;2023-03-05T07:31:17;43.15;;;17.95;;
35675;SDS011;21790;42.668;23.298;2023-03-05T07:33:44;38.20;;;17.13;;
35675;SDS011;21790;42.668;23.298;2023-03-05T07:36:11;33.90;;;16.50;;
35675;SDS011;21790;42.668;23.298;2023-03-05T07:38:37;35.70;;;18.10;;
35675;SDS011;21790;42.668;23.298;2023-03-05T07:41:03;40.05;;;17.52;;
35675;SDS011;21790;42.668;23.298;2023-03-05T07:43:30;37.92;;;18.80;;
35675;SDS011;21790;42.668;23.298;2023-03-05T07:45:56;35.53;;;18.80;;
35675;SDS011;21790;42.668;23.298;2023-03-05T07:48:22;41.70;;;20.10;;
35675;SDS011;21790;42.668;23.298;2023-03-05T07:50:48;37.42;;;18.13;;
35675;SDS011;21790;42.668;23.298;2023-03-05T07:53:14;41.60;;;20.15;;
35675;SDS011;21790;42.668;23.298;2023-03-05T07:55:41;40.72;;;19.88;;
35675;SDS011;21790;42.668;23.298;2023-03-05T07:58:10;39.75;;;19.73;;
35675;SDS011;21790;42.668;23.298;2023-03-05T08:00:37;43.08;;;18.88;;
35675;SDS011;21790;42.668;23.298;2023-03-05T08:03:03;40.08;;;20.15;;
35675;SDS011;21790;42.668;23.298;2023-03-05T08:05:29;40.92;;;19.85;;
35675;SDS011;21790;42.668;23.298;2023-03-05T08:07:54;41.17;;;19.42;;
35675;SDS011;21790;42.668;23.298;2023-03-05T08:10:20;39.80;;;20.65;;
35675;SDS011;21790;42.668;23.298;2023-03-05T08:12:45;42.88;;;20.48;;
35675;SDS011;21790;42.668;23.298;2023-03-05T08:15:11;38.28;;;20.17;;
35675;SDS011;21790;42.668;23.298;2023-03-05T08:17:37;42.65;;;20.67;;
35675;SDS011;21790;42.668;23.298;2023-03-05T08:20:03;44.50;;;22.08;;
35675;SDS011;21790;42.668;23.298;2023-03-05T08:22:34;46.53;;;20.83;;
35675;SDS011;21790;42.668;23.298;2023-03-05T08:25:00;38.78;;;20.98;;
35675;SDS011;21790;42.668;23.298;2023-03-05T08:27:26;42.53;;;21.02;;
35675;SDS011;21790;42.668;23.298;2023-03-05T08:29:52;40.70;;;20.90;;
35675;SDS011;21790;42.668;23.298;2023-03-05T08:32:18;43.15;;;20.90;;
35675;SDS011;21790;42.668;23.298;2023-03-05T08:34:44;48.78;;;21.58;;
35675;SDS011;21790;42.668;23.298;2023-03-05T08:37:10;41.80;;;19.77;;
35675;SDS011;21790;42.668;23.298;2023-03-05T08:39:36;47.92;;;22.45;;
35675;SDS011;21790;42.668;23.298;2023-03-05T08:42:02;43.35;;;20.95;;
35675;SDS011;21790;42.668;23.298;2023-03-05T08:44:28;42.00;;;21.08;;
35675;SDS011;21790;42.668;23.298;2023-03-05T08:46:54;47.13;;;20.67;;
35675;SDS011;21790;42.668;23.298;2023-03-05T08:49:20;42.33;;;21.10;;
35675;SDS011;21790;42.668;23.298;2023-03-05T08:51:45;41.33;;;20.48;;
35675;SDS011;21790;42.668;23.298;2023-03-05T08:54:11;45.35;;;21.23;;
35675;SDS011;21790;42.668;23.298;2023-03-05T08:56:36;40.50;;;21.77;;
35675;SDS011;21790;42.668;23.298;2023-03-05T08:59:02;45.80;;;21.00;;
35675;SDS011;21790;42.668;23.298;2023-03-05T09:01:28;44.70;;;20.27;;
35675;SDS011;21790;42.668;23.298;2023-03-05T09:03:56;42.58;;;20.55;;
35675;SDS011;21790;42.668;23.298;2023-03-05T09:06:24;43.47;;;20.48;;
35675;SDS011;21790;42.668;23.298;2023-03-05T09:08:50;47.03;;;20.77;;
35675;SDS011;21790;42.668;23.298;2023-03-05T09:11:16;39.15;;;19.95;;
35675;SDS011;21790;42.668;23.298;2023-03-05T09:13:41;46.00;;;21.02;;
35675;SDS011;21790;42.668;23.298;2023-03-05T09:16:10;46.28;;;21.95;;
35675;SDS011;21790;42.668;23.298;2023-03-05T09:18:37;38.72;;;19.48;;
35675;SDS011;21790;42.668;23.298;2023-03-05T09:21:11;37.13;;;19.63;;
35675;SDS011;21790;42.668;23.298;2023-03-05T09:23:38;35.45;;;19.52;;
35675;SDS011;21790;42.668;23.298;2023-03-05T09:26:05;40.13;;;19.10;;
35675;SDS011;21790;42.668;23.298;2023-03-05T09:28:33;36.42;;;18.40;;
35675;SDS011;21790;42.668;23.298;2023-03-05T09:31:02;40.22;;;18.98;;
35675;SDS011;21790;42.668;23.298;2023-03-05T09:33:29;35.60;;;17.70;;
35675;SDS011;21790;42.668;23.298;2023-03-05T09:35:55;37.03;;;19.05;;
35675;SDS011;21790;42.668;23.298;2023-03-05T09:38:20;35.65;;;17.08;;
35675;SDS011;21790;42.668;23.298;2023-03-05T09:43:40;37.47;;;18.58;;
35675;SDS011;21790;42.668;23.298;2023-03-05T09:51:42;42.78;;;20.27;;
35675;SDS011;21790;42.668;23.298;2023-03-05T09:54:22;35.42;;;18.00;;
35675;SDS011;21790;42.668;23.298;2023-03-05T09:56:56;35.28;;;15.25;;
35675;SDS011;21790;42.668;23.298;2023-03-05T09:59:29;42.97;;;16.48;;
35675;SDS011;21790;42.668;23.298;2023-03-05T10:07:33;27.53;;;15.60;;
35675;SDS011;21790;42.668;23.298;2023-03-05T10:13:11;34.97;;;15.60;;
35675;SDS011;21790;42.668;23.298;2023-03-05T10:21:46;35.28;;;16.88;;
35675;SDS011;21790;42.668;23.298;2023-03-05T10:24:46;33.28;;;16.83;;
35675;SDS011;21790;42.668;23.298;2023-03-05T10:27:32;30.65;;;16.15;;
35675;SDS011;21790;42.668;23.298;2023-03-05T10:30:11;35.65;;;17.65;;
35675;SDS011;21790;42.668;23.298;2023-03-05T10:40:56;25.13;;;14.27;;
35675;SDS011;21790;42.668;23.298;2023-03-05T10:46:15;30.85;;;14.90;;
35675;SDS011;21790;42.668;23.298;2023-03-05T10:48:49;25.65;;;13.35;;
35675;SDS011;21790;42.668;23.298;2023-03-05T10:54:32;30.17;;;13.57;;
35675;SDS011;21790;42.668;23.298;2023-03-05T10:57:19;28.15;;;15.10;;
35675;SDS011;21790;42.668;23.298;2023-03-05T11:02:16;29.83;;;15.32;;
35675;SDS011;21790;42.668;23.298;2023-03-05T11:04:42;23.88;;;13.55;;
35675;SDS011;21790;42.668;23.298;2023-03-05T11:09:39;29.83;;;14.00;;
35675;SDS011;21790;42.668;23.298;2023-03-05T11:14:34;24.25;;;13.27;;
35675;SDS011;21790;42.668;23.298;2023-03-05T11:17:10;22.17;;;12.05;;
35675;SDS011;21790;42.668;23.298;2023-03-05T11:19:55;26.63;;;12.27;;
35675;SDS011;21790;42.668;23.298;2023-03-05T11:22:22;27.02;;;15.02;;
35675;SDS011;21790;42.668;23.298;2023-03-05T11:25:02;27.05;;;14.05;;
35675;SDS011;21790;42.668;23.298;2023-03-05T11:27:53;24.15;;;12.82;;
35675;SDS011;21790;42.668;23.298;2023-03-05T11:30:28;26.27;;;14.57;;
35675;SDS011;21790;42.668;23.298;2023-03-05T11:33:06;26.20;;;14.15;;
35675;SDS011;21790;42.668;23.298;2023-03-05T11:35:39;28.70;;;15.43;;
35675;SDS011;21790;42.668;23.298;2023-03-05T11:38:14;30.05;;;14.27;;
35675;SDS011;21790;42.668;23.298;2023-03-05T11:40:44;26.75;;;14.63;;
35675;SDS011;21790;42.668;23.298;2023-03-05T11:43:15;28.73;;;15.20;;
35675;SDS011;21790;42.668;23.298;2023-03-05T11:45:42;28.52;;;15.32;;
35675;SDS011;21790;42.668;23.298;2023-03-05T11:48:13;25.92;;;14.48;;
35675;SDS011;21790;42.668;23.298;2023-03-05T11:50:43;26.45;;;15.05;;
35675;SDS011;21790;42.668;23.298;2023-03-05T11:53:21;25.67;;;13.40;;
35675;SDS011;21790;42.668;23.298;2023-03-05T11:56:02;29.27;;;14.65;;
35675;SDS011;21790;42.668;23.298;2023-03-05T12:01:04;29.67;;;13.82;;
35675;SDS011;21790;42.668;23.298;2023-03-05T12:03:37;27.80;;;14.10;;
35675;SDS011;21790;42.668;23.298;2023-03-05T12:08:48;26.88;;;12.85;;
35675;SDS011;21790;42.668;23.298;2023-03-05T12:11:27;23.92;;;12.45;;
35675;SDS011;21790;42.668;23.298;2023-03-05T12:13:56;30.48;;;13.15;;
35675;SDS011;21790;42.668;23.298;2023-03-05T12:22:38;26.02;;;14.85;;
35675;SDS011;21790;42.668;23.298;2023-03-05T12:28:14;29.77;;;15.45;;
35675;SDS011;21790;42.668;23.298;2023-03-05T12:33:28;30.10;;;14.10;;
35675;SDS011;21790;42.668;23.298;2023-03-05T12:38:43;20.08;;;12.80;;
35675;SDS011;21790;42.668;23.298;2023-03-05T12:46:30;34.53;;;17.10;;
35675;SDS011;21790;42.668;23.298;2023-03-05T12:49:45;27.77;;;16.30;;
35675;SDS011;21790;42.668;23.298;2023-03-05T12:51:51;37.03;;;17.45;;
35675;SDS011;21790;42.668;23.298;2023-03-05T12:56:51;28.60;;;14.35;;
35675;SDS011;21790;42.668;23.298;2023-03-05T12:59:19;36.58;;;14.20;;
35675;SDS011;21790;42.668;23.298;2023-03-05T13:01:53;26.00;;;13.55;;
35675;SDS011;21790;42.668;23.298;2023-03-05T13:04:23;24.48;;;12.50;;
35675;SDS011;21790;42.668;23.298;2023-03-05T13:09:29;25.60;;;13.35;;
35675;SDS011;21790;42.668;23.298;2023-03-05T13:11:57;29.00;;;14.80;;
35675;SDS011;21790;42.668;23.298;2023-03-05T13:16:55;32.58;;;14.93;;
35675;SDS011;21790;42.668;23.298;2023-03-05T13:19:21;24.33;;;13.43;;
35675;SDS011;21790;42.668;23.298;2023-03-05T13:21:58;25.67;;;13.85;;
35675;SDS011;21790;42.668;23.298;2023-03-05T13:24:25;29.25;;;14.45;;
35675;SDS011;21790;42.668;23.298;2023-03-05T13:26:51;29.52;;;13.02;;
35675;SDS011;21790;42.668;23.298;2023-03-05T13:29:17;24.52;;;13.02;;
35675;SDS011;21790;42.668;23.298;2023-03-05T13:31:50;27.98;;;13.70;;
35675;SDS011;21790;42.668;23.298;2023-03-05T13:34:23;29.50;;;15.00;;
35675;SDS011;21790;42.668;23.298;2023-03-05T13:37:01;29.27;;;14.95;;
35675;SDS011;21790;42.668;23.298;2023-03-05T13:39:31;24.35;;;12.55;;
35675;SDS011;21790;42.668;23.298;2023-03-05T13:42:05;23.05;;;13.35;;
35675;SDS011;21790;42.668;23.298;2023-03-05T13:44:40;26.67;;;13.95;;
35675;SDS011;21790;42.668;23.298;2023-03-05T13:47:07;23.85;;;13.10;;
35675;SDS011;21790;42.668;23.298;2023-03-05T13:49:44;26.50;;;14.50;;
35675;SDS011;21790;42.668;23.298;2023-03-05T13:52:28;29.75;;;15.18;;
35675;SDS011;21790;42.668;23.298;2023-03-05T13:54:56;33.58;;;15.52;;
35675;SDS011;21790;42.668;23.298;2023-03-05T13:57:39;30.50;;;15.23;;
35675;SDS011;21790;42.668;23.298;2023-03-05T14:00:22;30.83;;;13.93;;
35675;SDS011;21790;42.668;23.298;2023-03-05T14:02:59;28.73;;;13.15;;
35675;SDS011;21790;42.668;23.298;2023-03-05T14:05:33;30.42;;;14.80;;
35675;SDS011;21790;42.668;23.298;2023-03-05T14:07:59;29.38;;;13.38;;
35675;SDS011;21790;42.668;23.298;2023-03-05T14:12:50;31.67;;;14.95;;
35675;SDS011;21790;42.668;23.298;2023-03-05T14:15:26;30.60;;;15.13;;
35675;SDS011;21790;42.668;23.298;2023-03-05T14:28:56;26.95;;;14.30;;
35675;SDS011;21790;42.668;23.298;2023-03-05T14:31:25;29.17;;;14.65;;
35675;SDS011;21790;42.668;23.298;2023-03-05T14:33:51;28.83;;;13.93;;
35675;SDS011;21790;42.668;23.298;2023-03-05T14:36:22;28.60;;;13.85;;
35675;SDS011;21790;42.668;23.298;2023-03-05T14:38:50;32.65;;;16.55;;
35675;SDS011;21790;42.668;23.298;2023-03-05T14:41:17;24.77;;;13.25;;
35675;SDS011;21790;42.668;23.298;2023-03-05T14:43:43;30.13;;;15.95;;
35675;SDS011;21790;42.668;23.298;2023-03-05T14:46:08;30.42;;;14.57;;
35675;SDS011;21790;42.668;23.298;2023-03-05T14:48:34;34.03;;;14.45;;
35675;SDS011;21790;42.668;23.298;2023-03-05T14:51:00;29.65;;;14.90;;
35675;SDS011;21790;42.668;23.298;2023-03-05T14:53:27;35.88;;;15.73;;
35675;SDS011;21790;42.668;23.298;2023-03-05T14:55:58;24.95;;;14.38;;
35675;SDS011;21790;42.668;23.298;2023-03-05T14:58:28;37.17;;;19.73;;
35675;SDS011;21790;42.668;23.298;2023-03-05T15:00:59;28.20;;;15.07;;
35675;SDS011;21790;42.668;23.298;2023-03-05T15:03:25;34.45;;;17.42;;
35675;SDS011;21790;42.668;23.298;2023-03-05T15:05:53;28.75;;;14.38;;
35675;SDS011;21790;42.668;23.298;2023-03-05T15:08:29;29.58;;;15.65;;
35675;SDS011;21790;42.668;23.298;2023-03-05T15:10:56;25.77;;;14.40;;
35675;SDS011;21790;42.668;23.298;2023-03-05T15:13:22;29.17;;;15.35;;
35675;SDS011;21790;42.668;23.298;2023-03-05T15:15:49;31.30;;;15.95;;
35675;SDS011;21790;42.668;23.298;2023-03-05T15:18:17;31.08;;;15.80;;
35675;SDS011;21790;42.668;23.298;2023-03-05T15:20:48;34.00;;;15.73;;
35675;SDS011;21790;42.668;23.298;2023-03-05T15:23:17;35.40;;;16.73;;
35675;SDS011;21790;42.668;23.298;2023-03-05T15:25:43;34.13;;;18.35;;
35675;SDS011;21790;42.668;23.298;2023-03-05T15:28:09;37.95;;;19.10;;
35675;SDS011;21790;42.668;23.298;2023-03-05T15:30:45;69.40;;;35.10;;
35675;SDS011;21790;42.668;23.298;2023-03-05T15:33:12;31.38;;;16.23;;
35675;SDS011;21790;42.668;23.298;2023-03-05T15:41:49;34.67;;;14.98;;
35675;SDS011;21790;42.668;23.298;2023-03-05T15:46:45;26.23;;;14.48;;
35675;SDS011;21790;42.668;23.298;2023-03-05T15:52:02;25.70;;;13.05;;
35675;SDS011;21790;42.668;23.298;2023-03-05T15:54:27;27.38;;;14.32;;
35675;SDS011;21790;42.668;23.298;2023-03-05T15:56:53;22.88;;;13.70;;
35675;SDS011;21790;42.668;23.298;2023-03-05T15:59:21;26.38;;;14.45;;
35675;SDS011;21790;42.668;23.298;2023-03-05T16:01:47;27.88;;;14.82;;
35675;SDS011;21790;42.668;23.298;2023-03-05T16:04:15;28.63;;;14.02;;
35675;SDS011;21790;42.668;23.298;2023-03-05T16:06:42;25.85;;;14.07;;
35675;SDS011;21790;42.668;23.298;2023-03-05T16:09:13;29.08;;;14.15;;
35675;SDS011;21790;42.668;23.298;2023-03-05T16:11:41;28.13;;;14.88;;
35675;SDS011;21790;42.668;23.298;2023-03-05T16:14:12;26.65;;;13.82;;
35675;SDS011;21790;42.668;23.298;2023-03-05T16:17:00;26.48;;;13.45;;
35675;SDS011;21790;42.668;23.298;2023-03-05T16:19:44;31.02;;;15.35;;
35675;SDS011;21790;42.668;23.298;2023-03-05T16:24:58;26.95;;;14.93;;
35675;SDS011;21790;42.668;23.298;2023-03-05T16:27:25;27.98;;;13.63;;
35675;SDS011;21790;42.668;23.298;2023-03-05T16:29:51;30.83;;;17.48;;
35675;SDS011;21790;42.668;23.298;2023-03-05T16:32:17;27.45;;;15.00;;
35675;SDS011;21790;42.668;23.298;2023-03-05T16:34:45;29.40;;;13.55;;
35675;SDS011;21790;42.668;23.298;2023-03-05T16:39:47;26.80;;;15.50;;
35675;SDS011;21790;42.668;23.298;2023-03-05T16:42:13;30.25;;;14.68;;
35675;SDS011;21790;42.668;23.298;2023-03-05T16:44:39;27.75;;;15.43;;
35675;SDS011;21790;42.668;23.298;2023-03-05T16:47:05;29.88;;;15.35;;
35675;SDS011;21790;42.668;23.298;2023-03-05T16:49:34;23.73;;;13.38;;
35675;SDS011;21790;42.668;23.298;2023-03-05T16:52:00;29.35;;;14.45;;
35675;SDS011;21790;42.668;23.298;2023-03-05T16:54:28;28.25;;;14.73;;
35675;SDS011;21790;42.668;23.298;2023-03-05T16:56:54;24.80;;;14.05;;
35675;SDS011;21790;42.668;23.298;2023-03-05T16:59:22;23.70;;;14.50;;
35675;SDS011;21790;42.668;23.298;2023-03-05T17:01:48;22.27;;;13.57;;
35675;SDS011;21790;42.668;23.298;2023-03-05T17:04:14;30.50;;;14.10;;
35675;SDS011;21790;42.668;23.298;2023-03-05T17:06:43;25.33;;;14.68;;
35675;SDS011;21790;42.668;23.298;2023-03-05T17:11:38;25.40;;;13.55;;
35675;SDS011;21790;42.668;23.298;2023-03-05T17:14:04;29.17;;;13.98;;
35675;SDS011;21790;42.668;23.298;2023-03-05T17:16:29;24.20;;;14.35;;
35675;SDS011;21790;42.668;23.298;2023-03-05T17:18:55;26.35;;;14.95;;
35675;SDS011;21790;42.668;23.298;2023-03-05T17:21:21;31.40;;;14.13;;
35675;SDS011;21790;42.668;23.298;2023-03-05T17:23:46;26.75;;;13.70;;
35675;SDS011;21790;42.668;23.298;2023-03-05T17:26:13;23.95;;;13.25;;
35675;SDS011;21790;42.668;23.298;2023-03-05T17:28:42;26.75;;;14.63;;
35675;SDS011;21790;42.668;23.298;2023-03-05T17:31:08;25.90;;;14.10;;
35675;SDS011;21790;42.668;23.298;2023-03-05T17:33:34;25.88;;;14.32;;
35675;SDS011;21790;42.668;23.298;2023-03-05T17:36:00;26.70;;;15.52;;
35675;SDS011;21790;42.668;23.298;2023-03-05T17:38:27;25.05;;;13.88;;
35675;SDS011;21790;42.668;23.298;2023-03-05T17:40:53;23.35;;;12.65;;
35675;SDS011;21790;42.668;23.298;2023-03-05T17:43:19;25.30;;;12.82;;
35675;SDS011;21790;42.668;23.298;2023-03-05T17:45:45;23.63;;;13.52;;
35675;SDS011;21790;42.668;23.298;2023-03-05T17:48:12;27.02;;;13.82;;
35675;SDS011;21790;42.668;23.298;2023-03-05T17:50:38;23.73;;;13.07;;
35675;SDS011;21790;42.668;23.298;2023-03-05T17:53:04;25.52;;;13.35;;
35675;SDS011;21790;42.668;23.298;2023-03-05T17:55:29;25.08;;;12.52;;
35675;SDS011;21790;42.668;23.298;2023-03-05T17:57:55;22.08;;;12.45;;
35675;SDS011;21790;42.668;23.298;2023-03-05T18:00:27;25.40;;;12.85;;
35675;SDS011;21790;42.668;23.298;2023-03-05T18:02:54;24.58;;;13.35;;
35675;SDS011;21790;42.668;23.298;2023-03-05T18:05:20;24.75;;;12.20;;
35675;SDS011;21790;42.668;23.298;2023-03-05T18:07:47;25.10;;;12.85;;
35675;SDS011;21790;42.668;23.298;2023-03-05T18:10:13;24.50;;;13.07;;
35675;SDS011;21790;42.668;23.298;2023-03-05T18:12:39;21.13;;;12.93;;
35675;SDS011;21790;42.668;23.298;2023-03-05T18:15:06;23.23;;;12.85;;
35675;SDS011;21790;42.668;23.298;2023-03-05T18:17:33;22.52;;;11.98;;
35675;SDS011;21790;42.668;23.298;2023-03-05T18:19:59;22.92;;;11.88;;
35675;SDS011;21790;42.668;23.298;2023-03-05T18:22:24;22.67;;;12.55;;
35675;SDS011;21790;42.668;23.298;2023-03-05T18:24:50;22.25;;;12.30;;
35675;SDS011;21790;42.668;23.298;2023-03-05T18:27:15;24.08;;;12.38;;
35675;SDS011;21790;42.668;23.298;2023-03-05T18:29:41;21.77;;;12.60;;
35675;SDS011;21790;42.668;23.298;2023-03-05T18:32:09;22.40;;;12.98;;
35675;SDS011;21790;42.668;23.298;2023-03-05T18:34:34;24.75;;;12.77;;
35675;SDS011;21790;42.668;23.298;2023-03-05T18:37:00;25.92;;;12.70;;
35675;SDS011;21790;42.668;23.298;2023-03-05T18:39:26;21.35;;;12.43;;
35675;SDS011;21790;42.668;23.298;2023-03-05T18:41:58;20.60;;;12.93;;
35675;SDS011;21790;42.668;23.298;2023-03-05T18:44:23;22.67;;;13.02;;
35675;SDS011;21790;42.668;23.298;2023-03-05T18:46:49;21.95;;;12.38;;
35675;SDS011;21790;42.668;23.298;2023-03-05T18:49:14;22.90;;;13.32;;
35675;SDS011;21790;42.668;23.298;2023-03-05T18:51:40;24.42;;;12.43;;
35675;SDS011;21790;42.668;23.298;2023-03-05T18:54:07;21.95;;;12.77;;
35675;SDS011;21790;42.668;23.298;2023-03-05T18:56:33;24.02;;;13.40;;
35675;SDS011;21790;42.668;23.298;2023-03-05T18:58:58;20.95;;;12.38;;
35675;SDS011;21790;42.668;23.298;2023-03-05T19:01:24;23.65;;;12.52;;
35675;SDS011;21790;42.668;23.298;2023-03-05T19:03:50;20.15;;;12.23;;
35675;SDS011;21790;42.668;23.298;2023-03-05T19:06:16;21.17;;;12.32;;
35675;SDS011;21790;42.668;23.298;2023-03-05T19:08:42;22.75;;;11.75;;
35675;SDS011;21790;42.668;23.298;2023-03-05T19:11:16;25.48;;;11.85;;
35675;SDS011;21790;42.668;23.298;2023-03-05T19:13:46;19.38;;;11.45;;
35675;SDS011;21790;42.668;23.298;2023-03-05T19:16:28;22.00;;;12.65;;
35675;SDS011;21790;42.668;23.298;2023-03-05T19:21:38;22.90;;;12.15;;
35675;SDS011;21790;42.668;23.298;2023-03-05T19:24:04;23.75;;;13.27;;
35675;SDS011;21790;42.668;23.298;2023-03-05T19:26:30;20.35;;;11.05;;
35675;SDS011;21790;42.668;23.298;2023-03-05T19:28:55;24.80;;;13.00;;
35675;SDS011;21790;42.668;23.298;2023-03-05T19:31:21;20.77;;;11.93;;
35675;SDS011;21790;42.668;23.298;2023-03-05T19:33:47;19.63;;;11.20;;
35675;SDS011;21790;42.668;23.298;2023-03-05T19:36:15;21.85;;;11.80;;
35675;SDS011;21790;42.668;23.298;2023-03-05T19:38:41;19.08;;;11.35;;
35675;SDS011;21790;42.668;23.298;2023-03-05T19:41:07;19.27;;;11.20;;
35675;SDS011;21790;42.668;23.298;2023-03-05T19:43:34;17.63;;;10.73;;
35675;SDS011;21790;42.668;23.298;2023-03-05T19:46:04;22.00;;;11.80;;
35675;SDS011;21790;42.668;23.298;2023-03-05T19:48:31;17.08;;;10.73;;
35675;SDS011;21790;42.668;23.298;2023-03-05T19:50:59;19.55;;;12.07;;
35675;SDS011;21790;42.668;23.298;2023-03-05T19:53:25;17.70;;;10.95;;
35675;SDS011;21790;42.668;23.298;2023-03-05T19:55:50;18.33;;;11.27;;
35675;SDS011;21790;42.668;23.298;2023-03-05T19:58:16;18.08;;;11.02;;
35675;SDS011;21790;42.668;23.298;2023-03-05T20:00:43;19.10;;;11.82;;
35675;SDS011;21790;42.668;23.298;2023-03-05T20:03:08;18.08;;;11.05;;
35675;SDS011;21790;42.668;23.298;2023-03-05T20:05:34;18.55;;;11.50;;
35675;SDS011;21790;42.668;23.298;2023-03-05T20:08:00;19.02;;;11.52;;
35675;SDS011;21790;42.668;23.298;2023-03-05T20:10:25;24.58;;;11.80;;
35675;SDS011;21790;42.668;23.298;2023-03-05T20:12:51;21.73;;;11.68;;
35675;SDS011;21790;42.668;23.298;2023-03-05T20:15:17;22.52;;;12.98;;
35675;SDS011;21790;42.668;23.298;2023-03-05T20:17:43;19.10;;;11.55;;
35675;SDS011;21790;42.668;23.298;2023-03-05T20:20:18;22.27;;;11.48;;
35675;SDS011;21790;42.668;23.298;2023-03-05T20:22:44;22.98;;;11.82;;
35675;SDS011;21790;42.668;23.298;2023-03-05T20:25:12;22.13;;;11.85;;
35675;SDS011;21790;42.668;23.298;2023-03-05T20:27:40;20.83;;;11.93;;
35675;SDS011;21790;42.668;23.298;2023-03-05T20:30:07;25.02;;;13.25;;
35675;SDS011;21790;42.668;23.298;2023-03-05T20:32:36;23.50;;;12.63;;
35675;SDS011;21790;42.668;23.298;2023-03-05T20:35:02;25.27;;;14.20;;
35675;SDS011;21790;42.668;23.298;2023-03-05T20:40:38;21.27;;;11.55;;
35675;SDS011;21790;42.668;23.298;2023-03-05T20:43:04;21.65;;;12.20;;
35675;SDS011;21790;42.668;23.298;2023-03-05T20:45:29;24.60;;;13.63;;
35675;SDS011;21790;42.668;23.298;2023-03-05T20:47:55;22.38;;;12.88;;
35675;SDS011;21790;42.668;23.298;2023-03-05T20:50:30;26.02;;;14.05;;
35675;SDS011;21790;42.668;23.298;2023-03-05T20:52:58;19.27;;;11.10;;
35675;SDS011;21790;42.668;23.298;2023-03-05T20:55:24;17.67;;;11.05;;
35675;SDS011;21790;42.668;23.298;2023-03-05T20:57:54;19.48;;;12.02;;
35675;SDS011;21790;42.668;23.298;2023-03-05T21:00:29;23.55;;;11.82;;
35675;SDS011;21790;42.668;23.298;2023-03-05T21:06:10;22.20;;;11.93;;
35675;SDS011;21790;42.668;23.298;2023-03-05T21:08:35;21.23;;;11.88;;
35675;SDS011;21790;42.668;23.298;2023-03-05T21:11:05;19.85;;;11.68;;
35675;SDS011;21790;42.668;23.298;2023-03-05T21:13:32;18.23;;;10.82;;
35675;SDS011;21790;42.668;23.298;2023-03-05T21:15:58;24.23;;;11.73;;
35675;SDS011;21790;42.668;23.298;2023-03-05T21:18:24;19.42;;;11.82;;
35675;SDS011;21790;42.668;23.298;2023-03-05T21:20:52;20.17;;;10.88;;
35675;SDS011;21790;42.668;23.298;2023-03-05T21:23:18;20.45;;;11.00;;
35675;SDS011;21790;42.668;23.298;2023-03-05T21:25:44;21.73;;;11.43;;
35675;SDS011;21790;42.668;23.298;2023-03-05T21:28:10;25.20;;;14.88;;
35675;SDS011;21790;42.668;23.298;2023-03-05T21:30:40;25.23;;;12.43;;
35675;SDS011;21790;42.668;23.298;2023-03-05T21:33:12;24.58;;;11.93;;
35675;SDS011;21790;42.668;23.298;2023-03-05T21:35:40;21.17;;;13.43;;
35675;SDS011;21790;42.668;23.298;2023-03-05T21:38:06;26.98;;;12.80;;
35675;SDS011;21790;42.668;23.298;2023-03-05T21:40:33;22.35;;;12.65;;
35675;SDS011;21790;42.668;23.298;2023-03-05T21:43:00;19.85;;;11.80;;
35675;SDS011;21790;42.668;23.298;2023-03-05T21:45:28;22.70;;;12.27;;
35675;SDS011;21790;42.668;23.298;2023-03-05T21:47:54;20.73;;;11.70;;
35675;SDS011;21790;42.668;23.298;2023-03-05T21:50:23;22.52;;;11.95;;
35675;SDS011;21790;42.668;23.298;2023-03-05T21:52:49;24.83;;;11.80;;
35675;SDS011;21790;42.668;23.298;2023-03-05T21:55:16;18.48;;;10.57;;